Time;durP1;ratioP1;P1;durP2;ratioP2;P2;SDS_P1;SDS_P2;PMS_P1;PMS_P2;Temp;Humidity;BMP_temperature;BMP_pressure;BME280_temperature;BME280_humidity;BME280_pressure;Samples;Min_cycle;Max_cycle;Signal;HPM_P1;HPM_P2
2022/02/04 00:20:55;;;;;;;;;;;;;;;21.93;30.61;95309.97;10464855;28;1881;-46
2022/02/04 00:31:12;;;;;;;;;;;;;;;21.92;30.49;95300.47;10459698;28;2013;-46
2022/02/04 00:41:24;;;;;;;;;;;;;;;21.89;30.49;95320.31;10467458;28;1967;-46
2022/02/04 00:46:35;;;;;;;;;;;;;;;21.93;30.38;95323.91;10467408;28;1822;-44
2022/02/04 00:57:05;;;;;;;;;;;;;;;21.93;30.52;95337.13;10471906;28;1898;-43
2022/02/04 01:28:23;;;;;;;;;;;;;;;21.91;30.33;95381.47;10478914;28;1879;-44
2022/02/04 01:33:24;;;;;;;;;;;;;;;21.91;30.12;95386.75;10473763;28;1801;-48
2022/02/04 01:38:28;;;;;;;;;;;;;;;21.92;30.32;95390.97;10472723;28;1902;-44
2022/02/04 01:43:28;;;;;;;;;;;;;;;21.94;30.14;95382.75;10475229;28;1852;-50
2022/02/04 01:48:30;;;;;;;;;;;;;;;21.92;29.98;95380.44;10467575;28;1852;-44
2022/02/04 01:53:31;;;;;;;;;;;;;;;21.93;30.06;95376.69;10475012;28;1910;-47
2022/02/04 01:58:32;;;;;;;;;;;;;;;21.93;29.85;95376.69;10477060;28;1982;-44
2022/02/04 02:03:32;;;;;;;;;;;;;;;21.91;29.97;95378.84;10481435;28;1394;-47
2022/02/04 02:08:33;;;;;;;;;;;;;;;21.95;29.75;95382.47;10475068;28;1567;-46
2022/02/04 03:00:55;;;;;;;;;;;;;;;21.96;29.64;95402.53;10470012;28;1937;-45
2022/02/04 03:05:56;;;;;;;;;;;;;;;21.95;29.99;95408.09;10469420;28;1892;-44
2022/02/04 03:10:56;;;;;;;;;;;;;;;21.96;29.54;95397.25;10467620;28;1853;-49
2022/02/04 03:16:00;;;;;;;;;;;;;;;21.94;29.61;95395.97;10473099;28;1961;-49
2022/02/04 03:21:27;;;;;;;;;;;;;;;21.96;29.73;95399.88;10468934;28;1848;-47
2022/02/04 03:31:41;;;;;;;;;;;;;;;21.94;29.68;95402.03;10469995;28;1870;-46
2022/02/04 03:36:41;;;;;;;;;;;;;;;21.96;29.63;95407.78;10472888;28;1905;-45
2022/02/04 03:41:42;;;;;;;;;;;;;;;21.96;29.70;95413.06;10468262;28;1971;-44
2022/02/04 03:46:42;;;;;;;;;;;;;;;21.98;29.47;95432.03;10471570;28;1936;-44
2022/02/04 03:51:43;;;;;;;;;;;;;;;22.00;29.41;95429.09;10474518;28;1888;-44
2022/02/04 03:56:44;;;;;;;;;;;;;;;21.99;29.47;95420.41;10448376;28;1965;-46
2022/02/04 04:01:45;;;;;;;;;;;;;;;21.97;29.27;95425.19;10469798;28;1766;-44
2022/02/04 04:06:48;;;;;;;;;;;;;;;21.99;29.49;95428.31;10469623;28;1887;-45
2022/02/04 04:11:48;;;;;;;;;;;;;;;21.97;29.39;95438.38;10467141;28;1816;-45
2022/02/04 04:16:52;;;;;;;;;;;;;;;21.98;29.53;95434.69;10469998;28;1969;-45
2022/02/04 04:21:53;;;;;;;;;;;;;;;21.98;29.68;95441.81;10466579;28;1871;-44
2022/02/04 04:26:53;;;;;;;;;;;;;;;21.98;29.27;95447.88;10465336;28;1892;-45
2022/02/04 04:31:53;;;;;;;;;;;;;;;21.99;29.33;95459.97;10452397;28;1793;-45
2022/02/04 04:36:53;;;;;;;;;;;;;;;21.98;29.27;95461.06;10462638;28;1958;-45
2022/02/04 04:42:15;;;;;;;;;;;;;;;21.99;29.45;95475.06;10447117;28;1892;-43
2022/02/04 05:29:50;;;;;;;;;;;;;;;22.00;29.19;95495.09;10463436;28;1841;-45
2022/02/04 05:34:51;;;;;;;;;;;;;;;22.00;29.25;95501.16;10465993;28;2006;-44
2022/02/04 05:40:01;;;;;;;;;;;;;;;21.96;29.24;95497.53;10464684;28;1856;-44
2022/02/04 05:45:12;;;;;;;;;;;;;;;21.96;29.31;95502.81;10467803;28;1921;-44
2022/02/04 05:55:29;;;;;;;;;;;;;;;21.98;29.28;95502.50;10465187;28;1898;-44
2022/02/04 06:00:42;;;;;;;;;;;;;;;21.96;29.20;95508.09;10465004;28;1848;-45
2022/02/04 06:11:09;;;;;;;;;;;;;;;21.95;29.20;95511.03;10393846;22;1871;-75
2022/02/04 06:26:26;;;;;;;;;;;;;;;21.97;29.32;95524.72;10418951;28;1847;-60
2022/02/04 06:31:28;;;;;;;;;;;;;;;21.94;29.08;95526.06;10380039;28;1879;-62
2022/02/04 06:36:28;;;;;;;;;;;;;;;21.98;28.80;95539.47;10396686;28;2053;-62
2022/02/04 06:41:29;;;;;;;;;;;;;;;21.99;28.83;95546.31;10390804;28;1872;-62
2022/02/04 06:46:30;;;;;;;;;;;;;;;21.95;29.01;95548.72;10398248;28;1813;-62
2022/02/04 06:51:31;;;;;;;;;;;;;;;21.95;29.09;95550.59;10405027;28;1863;-62
2022/02/04 06:56:34;;;;;;;;;;;;;;;21.95;28.92;95554.00;10396322;28;1967;-61
2022/02/04 07:01:34;;;;;;;;;;;;;;;21.93;29.10;95555.38;10399405;28;1853;-61
2022/02/04 07:06:39;;;;;;;;;;;;;;;21.92;29.06;95559.09;10431040;28;1734;-62
2022/02/04 07:21:56;;;;;;;;;;;;;;;21.96;29.15;95574.06;10402206;28;1862;-60
2022/02/04 07:26:56;;;;;;;;;;;;;;;21.96;28.98;95568.00;10441288;28;1857;-59
2022/02/04 07:31:57;;;;;;;;;;;;;;;21.95;28.86;95579.63;10416153;28;1925;-60
2022/02/04 07:42:17;;;;;;;;;;;;;;;21.97;29.26;95588.81;10422305;28;1867;-60
2022/02/04 07:47:17;;;;;;;;;;;;;;;22.10;29.12;95592.59;10429980;28;1996;-62
2022/02/04 07:52:17;;;;;;;;;;;;;;;22.23;28.97;95595.31;10402770;28;1892;-62
2022/02/04 07:57:18;;;;;;;;;;;;;;;22.35;28.30;95590.38;10434754;28;1955;-63
2022/02/04 08:02:18;;;;;;;;;;;;;;;22.43;28.20;95584.41;10417644;28;1870;-64
2022/02/04 08:07:18;;;;;;;;;;;;;;;22.51;28.10;95578.47;10419645;28;1870;-63
2022/02/04 08:49:25;;;;;;;;;;;;;;;22.78;26.62;95576.97;10432774;28;1797;-65
2022/02/04 08:54:09;;;;;;;;;;;;;;;22.82;26.92;95577.97;10411545;28;1975;-65
2022/02/04 08:59:15;;;;;;;;;;;;;;;22.81;26.89;95579.06;10436478;28;1793;-63
2022/02/04 09:04:19;;;;;;;;;;;;;;;22.83;26.46;95582.19;10428626;28;1743;-64
2022/02/04 09:09:43;;;;;;;;;;;;;;;22.86;26.61;95584.25;10416655;28;1850;-64
2022/02/04 09:20:09;;;;;;;;;;;;;;;22.85;26.53;95586.13;10431193;28;1833;-64
2022/02/04 09:25:09;;;;;;;;;;;;;;;22.89;26.73;95591.59;10446895;28;1855;-63
2022/02/04 09:30:11;;;;;;;;;;;;;;;22.90;26.54;95595.78;10410984;28;2198;-64
2022/02/04 09:35:12;;;;;;;;;;;;;;;22.92;26.91;95599.72;10427422;28;1910;-63
2022/02/04 09:40:13;;;;;;;;;;;;;;;22.90;26.30;95591.31;10423627;28;1791;-63
2022/02/04 09:45:14;;;;;;;;;;;;;;;22.90;26.32;95585.22;10435484;28;1935;-63
2022/02/04 09:50:18;;;;;;;;;;;;;;;22.92;26.28;95583.06;10441803;28;1828;-62
2022/02/04 10:17:05;;;;;;;;;;;;;;;22.99;26.63;95559.69;10436490;28;1902;-62
2022/02/04 10:22:01;;;;;;;;;;;;;;;22.98;26.60;95566.84;10435827;28;2041;-62
2022/02/04 10:27:16;;;;;;;;;;;;;;;22.99;26.69;95557.06;10439601;28;1840;-61
2022/02/04 10:32:17;;;;;;;;;;;;;;;22.99;26.89;95562.34;10435262;28;1899;-63
2022/02/04 10:37:28;;;;;;;;;;;;;;;22.99;26.96;95562.34;10423169;28;1926;-63
2022/02/04 10:47:46;;;;;;;;;;;;;;;23.05;27.36;95548.72;10438649;28;1846;-60
2022/02/04 10:53:08;;;;;;;;;;;;;;;23.04;27.57;95533.94;10420771;28;1950;-60
2022/02/04 10:58:28;;;;;;;;;;;;;;;23.07;27.21;95529.94;10437926;28;1910;-62
2022/02/04 11:03:31;;;;;;;;;;;;;;;23.09;27.86;95517.19;10402844;28;1865;-63
2022/02/04 11:08:52;;;;;;;;;;;;;;;23.05;26.78;95505.66;10437481;28;1841;-63
2022/02/04 11:57:01;;;;;;;;;;;;;;;22.70;26.85;95448.97;10434187;28;2000;-61
2022/02/04 12:02:02;;;;;;;;;;;;;;;22.56;27.00;95437.59;10431989;28;1800;-60
2022/02/04 12:07:11;;;;;;;;;;;;;;;22.52;27.36;95426.06;10428676;28;1836;-64
2022/02/04 12:12:14;;;;;;;;;;;;;;;22.43;27.07;95418.03;10411063;28;1821;-64
2022/02/04 12:17:16;;;;;;;;;;;;;;;22.47;27.81;95410.28;10413630;28;1970;-65
2022/02/04 12:22:17;;;;;;;;;;;;;;;22.44;27.79;95403.72;10393877;28;2118;-61
2022/02/04 12:27:27;;;;;;;;;;;;;;;22.43;27.38;95388.97;10398743;28;1866;-61
2022/02/04 12:32:28;;;;;;;;;;;;;;;22.45;27.97;95373.63;10428896;28;1965;-59
2022/02/04 12:37:28;;;;;;;;;;;;;;;22.47;28.02;95370.69;10428569;28;2336;-65
2022/02/04 12:42:28;;;;;;;;;;;;;;;22.53;28.51;95365.00;10404875;28;1934;-63
2022/02/04 12:47:30;;;;;;;;;;;;;;;22.46;28.77;95361.97;10416672;28;1913;-64
2022/02/04 12:52:42;;;;;;;;;;;;;;;22.46;29.23;95358.56;10423243;28;1932;-62
2022/02/04 12:57:55;;;;;;;;;;;;;;;22.45;29.07;95341.94;10428125;28;2005;-64
2022/02/04 13:08:08;;;;;;;;;;;;;;;22.41;29.43;95329.59;10416249;28;1843;-64
2022/02/04 13:13:14;;;;;;;;;;;;;;;22.43;29.55;95338.00;10411499;28;1859;-61
2022/02/04 13:18:15;;;;;;;;;;;;;;;22.39;29.24;95332.53;10428496;28;1985;-64
2022/02/04 13:23:20;;;;;;;;;;;;;;;22.43;29.14;95330.88;10437002;28;1844;-65
2022/02/04 13:28:20;;;;;;;;;;;;;;;22.64;28.93;95316.22;10419059;28;1990;-64
2022/02/04 13:33:22;;;;;;;;;;;;;;;22.56;29.23;95316.88;10418881;28;1872;-62
2022/02/04 13:38:41;;;;;;;;;;;;;;;22.51;29.35;95318.81;10438635;28;1970;-58
2022/02/04 13:49:23;;;;;;;;;;;;;;;22.48;29.33;95304.34;10432891;28;1892;-61
2022/02/04 13:54:34;;;;;;;;;;;;;;;22.60;29.07;95299.38;10416026;28;2117;-62
2022/02/04 13:59:52;;;;;;;;;;;;;;;22.63;29.31;95298.00;10420394;28;1962;-60
2022/02/04 14:04:54;;;;;;;;;;;;;;;22.54;29.60;95299.75;10432638;28;1939;-61
2022/02/04 14:10:05;;;;;;;;;;;;;;;22.54;29.54;95292.63;10418967;28;1825;-60
2022/02/04 14:15:06;;;;;;;;;;;;;;;22.59;29.39;95287.25;10421479;28;1972;-57
2022/02/04 14:20:06;;;;;;;;;;;;;;;22.64;29.44;95281.06;10421342;28;1802;-60
2022/02/04 14:25:07;;;;;;;;;;;;;;;22.65;29.16;95282.63;10449618;22;2785;-43
2022/02/04 14:30:16;;;;;;;;;;;;;;;22.58;29.51;95282.28;10449354;28;1901;-43
2022/02/04 15:02:05;;;;;;;;;;;;;;;22.52;29.46;95257.78;10471504;28;1898;-45
2022/02/04 15:07:06;;;;;;;;;;;;;;;22.49;29.97;95247.81;10457552;28;1795;-47
2022/02/04 15:12:08;;;;;;;;;;;;;;;22.47;29.69;95247.34;10483301;28;1795;-47
2022/02/04 15:17:09;;;;;;;;;;;;;;;22.43;29.82;95229.72;10452812;28;1910;-43
2022/02/04 15:22:09;;;;;;;;;;;;;;;22.45;29.77;95228.34;10456419;28;1723;-46
2022/02/04 15:27:11;;;;;;;;;;;;;;;22.60;29.41;95233.34;10454977;28;1479;-43
2022/02/04 15:32:11;;;;;;;;;;;;;;;22.70;29.49;95232.31;10472385;28;1956;-46
2022/02/04 15:37:11;;;;;;;;;;;;;;;22.81;29.30;95233.66;10465427;28;1976;-44
2022/02/04 15:42:15;;;;;;;;;;;;;;;22.91;28.63;95222.06;10474964;28;1924;-48
2022/02/04 16:07:41;;;;;;;;;;;;;;;23.25;27.20;95214.34;10470629;28;1893;-44
2022/02/04 16:12:55;;;;;;;;;;;;;;;23.25;27.54;95227.56;10469171;28;1801;-50
2022/02/04 16:17:58;;;;;;;;;;;;;;;23.19;26.94;95223.47;10450004;28;1906;-45
2022/02/04 16:23:07;;;;;;;;;;;;;;;23.19;28.02;95220.84;10469768;28;1771;-48
2022/02/04 16:33:27;;;;;;;;;;;;;;;22.87;28.66;95229.81;10451392;28;1900;-44
2022/02/04 16:38:32;;;;;;;;;;;;;;;22.74;29.91;95228.00;10459023;28;1906;-47
2022/02/04 16:43:35;;;;;;;;;;;;;;;22.64;29.46;95226.38;10448703;28;1847;-43
2022/02/04 16:48:36;;;;;;;;;;;;;;;22.59;30.04;95220.41;10445275;28;1884;-43
2022/02/04 16:53:37;;;;;;;;;;;;;;;22.52;30.04;95222.69;10461888;28;1880;-47
2022/02/04 16:58:37;;;;;;;;;;;;;;;22.46;30.60;95216.69;10465164;28;2182;-44
2022/02/04 17:03:37;;;;;;;;;;;;;;;22.44;30.25;95223.38;10448798;28;1866;-43
2022/02/04 17:08:52;;;;;;;;;;;;;;;22.41;29.67;95219.47;10467006;28;1808;-45
2022/02/04 17:13:54;;;;;;;;;;;;;;;22.36;30.47;95224.09;10471082;28;1825;-44
2022/02/04 17:18:55;;;;;;;;;;;;;;;22.38;32.01;95235.91;10448236;28;1935;-43
2022/02/04 17:23:57;;;;;;;;;;;;;;;22.27;32.12;95252.25;10448632;28;1853;-43
2022/02/04 17:28:57;;;;;;;;;;;;;;;22.28;33.91;95261.72;10449609;28;1850;-45
2022/02/04 17:33:57;;;;;;;;;;;;;;;22.21;33.19;95264.00;10447742;28;1763;-43
2022/02/04 17:38:58;;;;;;;;;;;;;;;22.12;32.61;95271.81;10452191;28;1998;-45
2022/02/04 17:43:58;;;;;;;;;;;;;;;22.07;32.82;95292.28;10455930;28;2001;-43
2022/02/04 17:49:09;;;;;;;;;;;;;;;22.00;32.80;95282.09;10450288;28;1853;-45
2022/02/04 17:54:13;;;;;;;;;;;;;;;21.97;32.81;95287.94;10471454;28;1910;-48
2022/02/04 18:09:41;;;;;;;;;;;;;;;21.91;32.79;95327.94;10455003;28;1778;-46
2022/02/04 18:14:44;;;;;;;;;;;;;;;21.87;32.88;95330.38;10455140;28;1910;-46
2022/02/04 18:19:45;;;;;;;;;;;;;;;21.85;32.42;95338.56;10457789;28;1706;-42
2022/02/04 18:24:45;;;;;;;;;;;;;;;21.84;32.17;95349.44;10454333;28;1829;-46
2022/02/04 18:29:52;;;;;;;;;;;;;;;21.82;31.91;95359.50;10448890;28;1874;-48
2022/02/04 18:34:54;;;;;;;;;;;;;;;21.82;32.23;95370.03;10469454;28;1961;-44
2022/02/04 18:45:12;;;;;;;;;;;;;;;21.79;31.89;95365.31;10455973;28;1791;-43
2022/02/04 19:00:29;;;;;;;;;;;;;;;21.74;31.40;95392.56;10456490;28;1780;-45
2022/02/04 19:05:39;;;;;;;;;;;;;;;21.74;31.40;95400.47;10435983;28;1942;-47
2022/02/04 19:10:40;;;;;;;;;;;;;;;21.74;31.72;95410.25;10458929;28;1893;-44
2022/02/04 19:20:52;;;;;;;;;;;;;;;21.72;31.13;95367.56;10474060;28;1802;-46
2022/02/04 19:25:58;;;;;;;;;;;;;;;21.70;30.98;95362.53;10468318;28;1836;-43
2022/02/04 19:30:59;;;;;;;;;;;;;;;21.69;31.08;95357.56;10460326;28;1858;-45
2022/02/04 19:35:59;;;;;;;;;;;;;;;21.70;30.97;95367.81;10453807;28;1948;-46
2022/02/04 19:41:01;;;;;;;;;;;;;;;21.67;31.13;95371.06;10468677;28;1827;-43
2022/02/04 19:46:11;;;;;;;;;;;;;;;21.66;30.77;95369.47;10469209;28;1702;-45
2022/02/04 20:28:07;;;;;;;;;;;;;;;21.62;30.86;95355.28;10468545;28;1819;-45
2022/02/04 20:33:08;;;;;;;;;;;;;;;21.62;30.85;95360.56;10452801;28;1755;-44
2022/02/04 20:38:09;;;;;;;;;;;;;;;21.62;31.02;95363.22;10466645;28;1973;-43
2022/02/04 20:43:14;;;;;;;;;;;;;;;21.62;30.87;95365.06;10447269;28;2244;-44
2022/02/04 20:48:15;;;;;;;;;;;;;;;21.61;30.48;95352.97;10468737;28;1999;-43
2022/02/04 20:53:15;;;;;;;;;;;;;;;21.61;30.27;95360.88;10450816;28;1882;-44
2022/02/04 20:58:16;;;;;;;;;;;;;;;21.61;30.12;95350.31;10449603;28;1979;-43
2022/02/04 21:03:17;;;;;;;;;;;;;;;21.62;30.88;95357.16;10456886;28;1839;-44
2022/02/04 21:18:49;;;;;;;;;;;;;;;21.60;30.02;95351.38;10452651;28;1913;-43
2022/02/04 21:23:50;;;;;;;;;;;;;;;21.60;30.10;95354.00;10467636;28;1769;-44
2022/02/04 21:28:51;;;;;;;;;;;;;;;21.60;29.74;95346.09;10443671;28;2027;-47
2022/02/04 21:38:55;;;;;;;;;;;;;;;21.66;30.60;95348.38;10430288;28;1977;-44
2022/02/04 21:43:56;;;;;;;;;;;;;;;21.70;31.06;95353.88;10433307;28;1913;-51
2022/02/04 21:48:59;;;;;;;;;;;;;;;21.70;30.42;95352.00;10447910;28;1763;-52
2022/02/04 21:54:00;;;;;;;;;;;;;;;21.70;30.64;95352.00;10483388;22;2133;-55
2022/02/04 21:59:00;;;;;;;;;;;;;;;21.69;30.93;95345.16;10533707;28;1972;-55
2022/02/04 22:04:00;;;;;;;;;;;;;;;21.69;30.19;95354.94;10530395;28;1537;-58
2022/02/04 22:09:27;;;;;;;;;;;;;;;21.73;30.97;95355.91;10528477;28;1575;-58
2022/02/04 22:14:52;;;;;;;;;;;;;;;21.72;29.52;95359.63;10521971;28;1973;-60
2022/02/04 22:25:27;;;;;;;;;;;;;;;21.70;29.10;95365.19;10390558;28;1863;-61
2022/02/04 22:30:27;;;;;;;;;;;;;;;21.70;28.72;95370.47;10529617;28;1893;-60
2022/02/04 22:50:42;;;;;;;;;;;;;;;21.72;28.40;95386.03;10520916;28;1926;-59
2022/02/04 23:01:02;;;;;;;;;;;;;;;21.73;28.43;95390.22;10522858;28;1948;-58
2022/02/04 23:06:02;;;;;;;;;;;;;;;21.74;28.66;95381.25;10526554;28;1761;-58
2022/02/04 23:11:06;;;;;;;;;;;;;;;21.72;28.74;95386.78;10524977;28;1832;-59
2022/02/04 23:16:13;;;;;;;;;;;;;;;21.74;28.66;95387.28;10525252;28;1980;-60
2022/02/04 23:21:18;;;;;;;;;;;;;;;21.73;28.52;95398.91;10525206;28;1960;-60
2022/02/04 23:26:30;;;;;;;;;;;;;;;21.70;28.25;95388.16;10524561;28;1839;-55
2022/02/04 23:49:54;;;;;;;;;;;;;;;21.73;28.64;95411.31;10539703;27;1917;-58
2022/02/04 23:52:54;;;;;;;;;;;;;;;21.71;28.37;95424.00;10524879;28;1819;-57
2022/02/04 23:57:58;;;;;;;;;;;;;;;21.71;28.26;95438.00;10524380;28;1922;-59
